ダブリン の空港の天気 - METARとTAF

ダブリン空港 ( EIDW / DUB ) - アイルランド ダブリン
飛行場実況気象(Metar)
観測時間01/16 19:30 IST (01/16 19:30 UTC)
風向・風速西 3m/s
視程10km以上
天気現象
少しの雲 雲底高度 580m
全天の8割程度の雲 雲底高度 980m
気温4℃
湿度81%
気圧1035hPa
METAREIDW 161930Z 27006KT 9999 FEW019 BKN032 04/01 Q1035 NOSIG
過去の天気等 Google飛行場航空写真 Wunderground天気予報

過去48時間のMETAR

飛行場予報(TAF)
発表時間: 1/16 17:00 IST (1/16 17:00 UTC)
予報対象時間: 16日18時 IST ~ 17日18時 IST
風向・風速西 3m/s
視程10km以上
少しの雲 雲底高度 610m
全天の8割程度の雲 雲底高度 910m
17日9時 IST ~ 17日11時 IST に徐々に
風向・風速不定 2m/s
TAF EIDW 161700Z 1618/1718 28006KT 9999 FEW020 BKN030
BECMG 1709/1711 VRB03KT